Time;durP1;ratioP1;P1;durP2;ratioP2;P2;SDS_P1;SDS_P2;PMS_P1;PMS_P2;Temp;Humidity;BMP_temperature;BMP_pressure;BME280_temperature;BME280_humidity;BME280_pressure;Samples;Min_cycle;Max_cycle;Signal;HPM_P1;HPM_P2
2022/08/20 00:00:59;;;;;;;7.28;1.48;;;15.90;99.90;;;;;;5037332;28;20069;-70
2022/08/20 00:03:43;;;;;;;6.07;1.70;;;15.90;99.90;;;;;;5053529;28;20044;-68
2022/08/20 00:06:14;;;;;;;6.50;1.65;;;15.90;99.90;;;;;;5038027;28;20490;-68
2022/08/20 00:08:40;;;;;;;7.05;1.63;;;15.90;99.90;;;;;;5063625;28;20024;-69
2022/08/20 00:11:08;;;;;;;8.63;1.70;;;15.90;99.90;;;;;;5063701;28;20033;-69
2022/08/20 00:13:44;;;;;;;8.40;1.55;;;15.80;99.90;;;;;;5067631;28;20033;-71
2022/08/20 00:16:11;;;;;;;6.05;1.67;;;15.80;99.90;;;;;;5053591;28;20441;-69
2022/08/20 00:18:38;;;;;;;9.23;1.52;;;15.80;99.90;;;;;;5029393;28;20041;-68
2022/08/20 00:21:07;;;;;;;6.75;1.40;;;15.70;99.90;;;;;;5052255;28;20041;-70
2022/08/20 00:23:35;;;;;;;6.47;1.77;;;15.70;99.90;;;;;;5048719;28;20029;-68
2022/08/20 00:26:00;;;;;;;9.65;2.00;;;15.60;99.90;;;;;;5047269;28;20478;-69
2022/08/20 00:28:26;;;;;;;6.18;1.45;;;15.60;99.90;;;;;;5051420;28;20069;-69
2022/08/20 00:30:52;;;;;;;9.52;1.90;;;15.60;99.90;;;;;;5067343;28;20081;-69
2022/08/20 00:33:22;;;;;;;8.27;1.67;;;15.60;99.90;;;;;;5066467;28;20068;-69
2022/08/20 00:35:55;;;;;;;9.00;1.88;;;15.60;99.90;;;;;;5067572;28;20461;-68
2022/08/20 00:38:22;;;;;;;11.45;1.60;;;15.60;99.90;;;;;;5061746;28;21084;-69
2022/08/20 00:40:54;;;;;;;6.90;1.95;;;15.60;99.90;;;;;;5045685;28;20041;-69
2022/08/20 00:44:02;;;;;;;6.65;1.67;;;15.60;99.90;;;;;;5049168;28;20074;-70
2022/08/20 00:46:29;;;;;;;7.38;1.70;;;15.60;99.90;;;;;;5043247;28;20490;-70
2022/08/20 00:48:57;;;;;;;6.07;1.60;;;15.50;99.90;;;;;;5050172;28;20021;-69
2022/08/20 00:51:45;;;;;;;8.82;1.85;;;15.50;99.90;;;;;;5065697;28;20029;-67
2022/08/20 00:54:40;;;;;;;7.13;1.45;;;15.40;99.90;;;;;;5067098;28;20190;-68
2022/08/20 00:57:33;;;;;;;7.05;1.55;;;15.40;99.90;;;;;;5043325;28;20798;-67
2022/08/20 01:00:02;;;;;;;12.82;2.05;;;15.40;99.90;;;;;;5057558;28;20060;-68
2022/08/20 01:02:30;;;;;;;5.80;1.57;;;15.20;99.90;;;;;;5035883;28;20049;-68
2022/08/20 01:04:56;;;;;;;11.05;1.85;;;15.00;99.90;;;;;;5062265;28;20032;-67
2022/08/20 01:07:34;;;;;;;8.70;1.60;;;14.90;99.90;;;;;;5060078;28;20029;-69
2022/08/20 01:10:12;;;;;;;8.25;1.83;;;14.70;99.90;;;;;;5045039;28;20065;-69
2022/08/20 01:12:41;;;;;;;7.72;1.75;;;14.60;99.90;;;;;;5044525;28;20079;-67
2022/08/20 01:15:11;;;;;;;7.25;1.67;;;14.40;99.90;;;;;;5053749;28;20495;-67
2022/08/20 01:17:42;;;;;;;9.93;2.10;;;14.30;99.90;;;;;;5057689;28;20379;-70
2022/08/20 01:20:15;;;;;;;6.63;1.30;;;14.30;99.90;;;;;;5057244;28;20037;-68
2022/08/20 01:25:49;;;;;;;6.60;1.55;;;14.10;99.90;;;;;;5053211;28;20603;-69
2022/08/20 01:28:18;;;;;;;7.15;1.67;;;14.00;99.90;;;;;;5045632;28;20085;-69
2022/08/20 01:30:44;;;;;;;7.30;1.57;;;13.90;99.90;;;;;;5055178;28;20391;-68
2022/08/20 01:33:10;;;;;;;6.93;1.70;;;13.80;99.90;;;;;;5054436;28;20035;-69
2022/08/20 01:35:38;;;;;;;7.13;1.85;;;13.70;99.90;;;;;;5054861;28;20051;-70
2022/08/20 01:38:06;;;;;;;9.02;2.17;;;13.60;99.90;;;;;;5057816;28;20063;-68
2022/08/20 01:40:45;;;;;;;8.13;1.90;;;13.60;99.90;;;;;;5046830;28;20486;-68
2022/08/20 01:43:11;;;;;;;8.60;2.20;;;13.60;99.90;;;;;;5055703;28;20033;-68
2022/08/20 01:45:38;;;;;;;6.90;1.60;;;13.60;99.90;;;;;;5066827;28;20040;-69
2022/08/20 01:48:04;;;;;;;7.15;1.83;;;13.50;99.90;;;;;;5060751;28;20093;-67
2022/08/20 01:50:32;;;;;;;7.38;1.67;;;13.50;99.90;;;;;;5055304;28;20060;-68
2022/08/20 01:53:11;;;;;;;7.45;1.40;;;13.40;99.90;;;;;;5064641;28;20442;-67
2022/08/20 01:55:37;;;;;;;6.68;1.73;;;13.30;99.90;;;;;;5053355;28;20024;-68
2022/08/20 01:58:03;;;;;;;6.00;1.42;;;13.40;99.90;;;;;;5053063;28;20045;-69
2022/08/20 02:00:29;;;;;;;8.80;1.80;;;13.50;99.90;;;;;;5056411;28;20056;-69
2022/08/20 02:02:55;;;;;;;7.30;1.60;;;13.70;99.90;;;;;;5052694;28;20036;-68
2022/08/20 02:05:20;;;;;;;7.82;1.50;;;13.80;99.90;;;;;;5044434;28;20040;-70
2022/08/20 02:07:46;;;;;;;6.32;1.50;;;13.90;99.90;;;;;;5056466;28;20028;-70
2022/08/20 02:10:14;;;;;;;7.18;1.52;;;14.00;99.90;;;;;;5057493;28;20059;-70
2022/08/20 02:12:40;;;;;;;7.28;1.40;;;14.00;99.90;;;;;;5050833;28;20040;-69
2022/08/20 02:15:09;;;;;;;4.57;1.45;;;13.90;99.90;;;;;;5050975;28;20028;-69
2022/08/20 02:17:35;;;;;;;8.35;1.73;;;13.90;99.90;;;;;;5055022;28;20133;-68
2022/08/20 02:20:25;;;;;;;5.38;1.60;;;13.90;99.90;;;;;;5054910;28;20039;-68
2022/08/20 02:22:55;;;;;;;8.32;1.90;;;13.90;99.90;;;;;;5064639;28;20037;-68
2022/08/20 02:25:22;;;;;;;;;;;13.80;99.90;;;;;;5065951;28;20045;-68
2022/08/20 02:27:50;;;;;;;8.82;1.75;;;13.80;99.90;;;;;;5059605;28;19939;-69
2022/08/20 02:30:31;;;;;;;10.13;2.00;;;13.70;99.90;;;;;;5055741;28;20044;-68
2022/08/20 02:32:59;;;;;;;6.60;1.80;;;13.50;99.90;;;;;;5064310;28;20512;-69
2022/08/20 02:35:25;;;;;;;10.70;2.33;;;13.40;99.90;;;;;;5058513;28;20035;-68
2022/08/20 02:37:52;;;;;;;5.35;1.77;;;13.30;99.90;;;;;;5057354;28;20029;-69
2022/08/20 02:40:20;;;;;;;6.60;1.73;;;13.30;99.90;;;;;;5061648;28;20766;-68
2022/08/20 02:42:46;;;;;;;9.45;2.20;;;13.20;99.90;;;;;;5059349;28;20029;-70
2022/08/20 02:45:15;;;;;;;6.63;1.85;;;13.10;99.90;;;;;;5057248;28;20128;-68
2022/08/20 02:47:42;;;;;;;9.57;2.60;;;13.00;99.90;;;;;;5060428;28;20082;-69
2022/08/20 02:50:11;;;;;;;9.50;2.50;;;12.90;99.90;;;;;;5060478;28;20119;-70
2022/08/20 02:52:37;;;;;;;6.88;2.20;;;12.80;99.90;;;;;;5055176;28;20025;-69
2022/08/20 02:55:03;;;;;;;8.18;2.20;;;12.70;99.90;;;;;;5053618;28;20324;-68
2022/08/20 02:57:29;;;;;;;9.10;2.40;;;12.60;99.90;;;;;;5057534;28;20040;-68
2022/08/20 02:59:55;;;;;;;9.48;2.28;;;12.60;99.90;;;;;;5053244;28;20056;-68
2022/08/20 03:02:21;;;;;;;11.57;2.35;;;12.50;99.90;;;;;;5059544;28;20025;-69
2022/08/20 03:04:46;;;;;;;9.48;2.50;;;12.50;99.90;;;;;;5053775;28;20048;-68
2022/08/20 03:07:13;;;;;;;7.65;2.50;;;12.40;99.90;;;;;;5061842;28;20028;-69
2022/08/20 03:09:40;;;;;;;7.72;2.53;;;12.40;99.90;;;;;;5053603;28;20537;-68
2022/08/20 03:12:06;;;;;;;7.15;2.30;;;12.30;99.90;;;;;;5054926;28;20040;-68
2022/08/20 03:14:33;;;;;;;7.78;2.25;;;12.30;99.90;;;;;;5057590;28;20144;-68
2022/08/20 03:16:58;;;;;;;8.55;2.55;;;12.30;99.90;;;;;;5048530;28;20037;-69
2022/08/20 03:19:24;;;;;;;8.88;2.55;;;12.20;99.90;;;;;;5058374;28;20041;-69
2022/08/20 03:21:50;;;;;;;11.25;2.33;;;12.20;99.90;;;;;;5055512;28;20044;-68
2022/08/20 03:24:16;;;;;;;10.85;2.50;;;12.20;99.90;;;;;;5058370;28;20043;-69
2022/08/20 03:26:41;;;;;;;9.30;2.42;;;12.20;99.90;;;;;;5052186;28;20035;-68
2022/08/20 03:29:07;;;;;;;10.65;2.60;;;12.20;99.90;;;;;;5057939;28;20116;-69
2022/08/20 03:31:33;;;;;;;8.50;2.22;;;12.20;99.90;;;;;;5057168;28;20071;-68
2022/08/20 03:33:59;;;;;;;9.93;2.83;;;12.20;99.90;;;;;;5056477;28;21997;-68
2022/08/20 03:36:26;;;;;;;14.90;2.90;;;12.10;99.90;;;;;;5054071;28;20124;-68
2022/08/20 03:38:52;;;;;;;9.85;2.38;;;12.10;99.90;;;;;;5056151;28;20032;-68
2022/08/20 03:41:18;;;;;;;8.98;2.53;;;12.10;99.90;;;;;;5056369;28;20044;-68
2022/08/20 03:43:44;;;;;;;8.98;2.50;;;12.00;99.90;;;;;;5053882;28;20041;-68
2022/08/20 03:46:10;;;;;;;8.32;2.58;;;12.00;99.90;;;;;;5057655;28;20056;-68
2022/08/20 03:48:37;;;;;;;10.70;2.72;;;12.00;99.90;;;;;;5060470;28;20115;-70
2022/08/20 03:51:03;;;;;;;6.72;2.53;;;12.00;99.90;;;;;;5056812;28;20148;-67
2022/08/20 03:53:30;;;;;;;8.38;2.45;;;12.00;99.90;;;;;;5059020;28;20060;-68
2022/08/20 03:55:59;;;;;;;10.60;2.72;;;11.90;99.90;;;;;;5063146;28;20489;-69
2022/08/20 03:58:29;;;;;;;12.97;2.70;;;11.90;99.90;;;;;;5052631;28;20044;-68
2022/08/20 04:00:55;;;;;;;8.30;2.47;;;12.00;99.90;;;;;;5052746;28;20510;-69
2022/08/20 04:03:22;;;;;;;10.25;2.75;;;11.90;99.90;;;;;;5055095;28;20028;-68
2022/08/20 04:05:48;;;;;;;9.07;2.60;;;11.80;99.90;;;;;;5053563;28;20109;-68
2022/08/20 04:08:22;;;;;;;10.63;2.65;;;11.80;99.90;;;;;;5057217;28;20537;-68
2022/08/20 04:10:49;;;;;;;10.55;2.78;;;11.80;99.90;;;;;;5064488;28;20044;-68
2022/08/20 04:13:18;;;;;;;10.90;3.00;;;11.80;99.90;;;;;;5058024;28;20047;-68
2022/08/20 04:15:44;;;;;;;8.15;2.65;;;11.80;99.90;;;;;;5056394;28;20080;-68
2022/08/20 04:18:11;;;;;;;9.60;2.85;;;11.80;99.90;;;;;;5058938;28;20029;-68
2022/08/20 04:20:40;;;;;;;9.32;2.70;;;11.70;99.90;;;;;;5055301;28;20071;-68
2022/08/20 04:23:07;;;;;;;8.05;2.75;;;11.70;99.90;;;;;;5057634;28;20033;-68
2022/08/20 04:25:35;;;;;;;8.32;2.95;;;11.70;99.90;;;;;;5056406;28;20028;-68
2022/08/20 04:28:04;;;;;;;10.48;3.10;;;11.70;99.90;;;;;;5047505;28;20147;-68
2022/08/20 04:30:31;;;;;;;11.85;2.85;;;11.70;99.90;;;;;;5043305;28;20101;-67
2022/08/20 04:32:58;;;;;;;8.80;2.67;;;11.70;99.90;;;;;;5056955;28;20028;-68
2022/08/20 04:35:25;;;;;;;7.60;2.80;;;11.70;99.90;;;;;;5052430;28;20034;-68
2022/08/20 04:38:05;;;;;;;8.88;2.75;;;11.70;99.90;;;;;;5057205;28;20028;-68
2022/08/20 04:43:16;;;;;;;9.40;2.67;;;11.60;99.90;;;;;;5049943;28;20042;-69
2022/08/20 04:45:43;;;;;;;8.13;2.30;;;11.70;99.90;;;;;;5055235;28;20024;-70
2022/08/20 04:48:09;;;;;;;10.63;3.03;;;11.70;99.90;;;;;;5058392;28;20048;-67
2022/08/20 04:50:36;;;;;;;8.00;2.47;;;11.80;99.90;;;;;;5049422;28;20036;-68
2022/08/20 04:53:09;;;;;;;11.65;3.05;;;11.70;99.90;;;;;;5045927;28;20025;-69
2022/08/20 04:55:40;;;;;;;8.48;2.83;;;11.70;99.90;;;;;;5060936;28;20037;-68
2022/08/20 04:58:12;;;;;;;9.07;2.80;;;11.80;99.90;;;;;;5063835;28;20089;-68
2022/08/20 05:00:38;;;;;;;8.07;2.70;;;11.80;99.90;;;;;;5064877;28;20052;-68
2022/08/20 05:03:07;;;;;;;11.05;3.67;;;11.90;99.90;;;;;;5064641;28;20035;-68
2022/08/20 05:05:36;;;;;;;12.45;3.28;;;11.80;99.90;;;;;;5063097;28;20029;-68
2022/08/20 05:08:02;;;;;;;9.63;2.72;;;11.70;99.90;;;;;;5046642;28;20028;-67
2022/08/20 05:10:29;;;;;;;10.30;2.72;;;11.70;99.90;;;;;;5060212;28;20420;-68
2022/08/20 05:12:54;;;;;;;6.65;2.78;;;11.70;99.90;;;;;;5054659;28;20031;-67
2022/08/20 05:15:22;;;;;;;9.52;2.67;;;11.70;99.90;;;;;;5047101;28;20029;-67
2022/08/20 05:17:59;;;;;;;10.55;3.10;;;11.60;99.90;;;;;;5063063;28;20040;-67
2022/08/20 05:20:28;;;;;;;9.68;2.97;;;11.60;99.90;;;;;;5066673;28;20032;-67
2022/08/20 05:22:54;;;;;;;7.13;2.80;;;11.60;99.90;;;;;;5062662;28;20033;-67
2022/08/20 05:25:20;;;;;;;5.85;2.78;;;11.50;99.90;;;;;;5051248;28;20041;-68
2022/08/20 05:27:46;;;;;;;7.63;2.97;;;11.50;99.90;;;;;;5066839;28;20036;-68
2022/08/20 05:30:12;;;;;;;7.68;2.90;;;11.40;99.90;;;;;;5057989;28;20045;-67
2022/08/20 05:32:39;;;;;;;8.85;2.83;;;11.40;99.90;;;;;;5061023;28;20071;-67
2022/08/20 05:35:08;;;;;;;8.15;2.70;;;11.40;99.90;;;;;;5066529;28;20129;-68
2022/08/20 05:37:35;;;;;;;6.90;2.78;;;11.30;99.90;;;;;;5047905;28;20040;-70
2022/08/20 05:40:05;;;;;;;6.22;2.70;;;11.40;99.90;;;;;;5042815;28;20037;-68
2022/08/20 05:42:31;;;;;;;10.48;2.40;;;11.40;99.90;;;;;;5058089;28;20033;-67
2022/08/20 05:44:57;;;;;;;10.05;2.75;;;11.40;99.90;;;;;;5045139;28;20530;-67
2022/08/20 05:47:27;;;;;;;6.05;2.60;;;11.40;99.90;;;;;;5053753;28;20198;-68
2022/08/20 05:49:53;;;;;;;7.93;2.78;;;11.50;99.90;;;;;;5048822;28;20125;-67
2022/08/20 05:52:19;;;;;;;8.80;3.03;;;11.50;99.90;;;;;;5057330;28;20135;-68
2022/08/20 05:54:44;;;;;;;6.38;2.83;;;11.60;99.90;;;;;;5054888;28;20029;-67
2022/08/20 05:57:11;;;;;;;9.50;3.13;;;11.60;99.90;;;;;;5057910;28;20036;-69
2022/08/20 05:59:38;;;;;;;7.30;2.53;;;11.60;99.90;;;;;;5045009;28;20029;-68
2022/08/20 06:04:23;;;;;;;11.02;3.20;;;11.70;99.90;;;;;;5047972;28;20723;-67
2022/08/20 06:04:50;;;;;;;11.25;3.08;;;11.80;99.90;;;;;;5053127;28;20578;-67
2022/08/20 06:07:16;;;;;;;10.48;2.90;;;11.90;99.90;;;;;;5040172;28;20059;-68
2022/08/20 06:09:41;;;;;;;12.45;2.80;;;11.90;99.90;;;;;;5055262;28;20036;-68
2022/08/20 06:12:08;;;;;;;11.25;2.90;;;12.00;99.90;;;;;;5049984;28;20033;-68
2022/08/20 06:14:34;;;;;;;7.78;3.15;;;12.10;99.90;;;;;;5048826;28;20059;-68
2022/08/20 06:17:11;;;;;;;9.32;2.70;;;12.20;99.90;;;;;;5056607;28;20057;-69
2022/08/20 06:19:37;;;;;;;9.50;2.95;;;12.30;99.90;;;;;;5064228;28;20071;-68
2022/08/20 06:22:04;;;;;;;6.57;2.63;;;12.40;99.90;;;;;;5061527;28;20377;-68
2022/08/20 06:24:30;;;;;;;7.35;2.72;;;12.50;99.90;;;;;;5047919;28;20100;-69
2022/08/20 06:27:01;;;;;;;12.52;2.85;;;12.60;99.90;;;;;;5059795;28;20032;-69
2022/08/20 06:29:28;;;;;;;9.70;2.63;;;12.70;99.90;;;;;;5056800;28;20036;-69
2022/08/20 06:31:54;;;;;;;9.73;2.90;;;12.80;99.90;;;;;;5049451;28;20056;-69
2022/08/20 06:34:20;;;;;;;7.80;2.63;;;13.00;99.90;;;;;;5043384;28;20036;-69
2022/08/20 06:36:46;;;;;;;8.30;2.67;;;13.10;99.90;;;;;;5046645;28;20368;-69
2022/08/20 06:39:14;;;;;;;9.23;2.80;;;13.30;99.90;;;;;;5045367;28;20503;-67
2022/08/20 06:41:41;;;;;;;7.00;2.10;;;13.50;99.90;;;;;;5046230;28;20037;-69
2022/08/20 06:44:06;;;;;;;7.30;2.22;;;13.60;99.90;;;;;;5046602;28;20038;-68
2022/08/20 06:46:36;;;;;;;10.75;3.08;;;13.80;99.90;;;;;;5045960;28;20047;-70
2022/08/20 06:49:03;;;;;;;;;;;14.00;99.90;;;;;;5048463;28;20116;-68
2022/08/20 06:51:29;;;;;;;9.25;2.28;;;14.20;99.90;;;;;;5043772;28;20007;-68
2022/08/20 06:53:55;;;;;;;8.73;2.30;;;14.50;99.90;;;;;;5044999;28;20127;-70
2022/08/20 06:56:21;;;;;;;9.52;2.58;;;14.80;99.90;;;;;;5048172;28;20039;-68
2022/08/20 06:58:48;;;;;;;7.05;1.83;;;15.10;99.90;;;;;;5048533;28;20029;-69
2022/08/20 07:01:14;;;;;;;6.90;2.13;;;15.40;99.90;;;;;;5049272;28;20060;-68
2022/08/20 07:03:41;;;;;;;11.02;2.05;;;15.70;99.90;;;;;;5048351;28;20108;-68
2022/08/20 07:06:08;;;;;;;9.73;2.03;;;15.90;99.90;;;;;;5044443;28;20040;-68
2022/08/20 07:08:34;;;;;;;10.02;1.90;;;16.20;99.90;;;;;;5049357;28;20028;-68
2022/08/20 07:11:00;;;;;;;7.05;1.80;;;16.30;99.90;;;;;;5043227;28;20067;-69
2022/08/20 07:13:27;;;;;;;8.77;1.80;;;16.50;99.90;;;;;;5042960;28;20799;-68
2022/08/20 07:15:53;;;;;;;8.35;1.90;;;16.50;99.90;;;;;;5048556;28;20032;-70
2022/08/20 07:18:19;;;;;;;10.30;2.15;;;16.50;99.90;;;;;;5046227;28;20675;-68
2022/08/20 07:20:45;;;;;;;9.30;1.92;;;16.50;99.90;;;;;;5046279;28;20036;-68
2022/08/20 07:23:11;;;;;;;9.48;1.92;;;16.50;99.90;;;;;;5043429;28;20060;-69
2022/08/20 07:25:39;;;;;;;10.88;2.03;;;16.60;99.90;;;;;;5044592;28;20036;-70
2022/08/20 07:28:19;;;;;;;9.45;1.67;;;16.60;99.90;;;;;;5044063;28;20226;-69
2022/08/20 07:33:30;;;;;;;11.38;1.95;;;16.70;99.90;;;;;;5048626;28;20039;-69
2022/08/20 07:35:57;;;;;;;13.75;2.58;;;16.90;99.90;;;;;;5046645;28;20029;-70
2022/08/20 07:38:24;;;;;;;7.53;1.80;;;17.10;99.90;;;;;;5046850;28;20730;-70
2022/08/20 07:40:58;;;;;;;12.35;2.42;;;17.30;99.90;;;;;;5042609;28;20044;-70
2022/08/20 07:43:24;;;;;;;8.98;1.92;;;17.40;99.90;;;;;;5044415;28;20041;-69
2022/08/20 07:45:55;;;;;;;9.57;1.92;;;17.60;99.90;;;;;;5042398;28;20040;-69
2022/08/20 07:48:24;;;;;;;7.95;1.60;;;17.80;99.90;;;;;;5045667;28;20040;-69
2022/08/20 07:50:51;;;;;;;;;;;17.90;99.90;;;;;;5046005;28;20037;-69
2022/08/20 07:53:16;;;;;;;7.50;1.83;;;18.00;99.90;;;;;;5046676;28;19913;-69
2022/08/20 07:55:43;;;;;;;7.07;1.60;;;18.10;99.90;;;;;;5046162;28;20090;-70
2022/08/20 07:58:14;;;;;;;10.93;2.00;;;18.30;99.90;;;;;;5044196;28;20061;-69
2022/08/20 08:00:40;;;;;;;5.88;1.45;;;18.40;99.90;;;;;;5044229;28;20060;-69
2022/08/20 08:03:06;;;;;;;7.05;1.60;;;18.50;99.90;;;;;;5046982;28;20060;-69
2022/08/20 08:05:38;;;;;;;6.50;1.50;;;18.70;99.90;;;;;;5044835;28;20033;-69
2022/08/20 08:08:09;;;;;;;9.95;2.17;;;18.70;99.90;;;;;;5052957;28;20025;-69
2022/08/20 08:10:36;;;;;;;8.13;2.00;;;18.60;99.90;;;;;;5042498;28;20037;-68
2022/08/20 08:13:05;;;;;;;7.65;1.58;;;18.60;99.90;;;;;;5044087;28;20033;-69
2022/08/20 08:15:32;;;;;;;6.85;1.60;;;18.60;99.90;;;;;;5044971;28;20082;-69
2022/08/20 08:18:06;;;;;;;12.10;2.30;;;18.60;99.90;;;;;;5044400;28;20104;-68
2022/08/20 08:20:36;;;;;;;8.48;1.80;;;18.70;99.90;;;;;;5041966;28;20082;-69
2022/08/20 08:23:02;;;;;;;10.18;1.52;;;18.80;99.90;;;;;;5037732;28;20029;-69
2022/08/20 08:25:28;;;;;;;8.25;1.45;;;18.80;99.90;;;;;;5045589;28;20112;-68
2022/08/20 08:27:54;;;;;;;5.82;1.20;;;18.90;99.90;;;;;;5045851;28;20037;-69
2022/08/20 08:30:20;;;;;;;8.18;1.25;;;19.00;99.90;;;;;;5044084;28;20065;-69
2022/08/20 08:35:33;;;;;;;7.63;1.50;;;19.20;99.90;;;;;;5045333;28;20048;-69
2022/08/20 08:38:01;;;;;;;6.55;1.35;;;19.30;99.90;;;;;;5044636;28;20044;-69
2022/08/20 08:40:27;;;;;;;8.20;1.58;;;19.40;99.90;;;;;;5044353;28;20033;-69
2022/08/20 08:42:56;;;;;;;6.63;1.30;;;19.40;99.90;;;;;;5052047;28;20048;-69
2022/08/20 08:45:29;;;;;;;6.15;1.75;;;19.70;99.90;;;;;;5045554;28;20098;-69
2022/08/20 08:47:55;;;;;;;7.25;1.48;;;19.90;99.90;;;;;;5045914;28;20112;-68
2022/08/20 08:50:30;;;;;;;5.10;1.13;;;20.00;98.90;;;;;;5046712;28;20029;-68
2022/08/20 08:52:59;;;;;;;4.45;1.17;;;20.10;99.30;;;;;;5043459;28;20029;-70
2022/08/20 08:55:27;;;;;;;5.30;1.42;;;20.20;97.90;;;;;;5051883;28;20479;-68
2022/08/20 08:57:56;;;;;;;4.63;1.15;;;20.30;97.50;;;;;;5047959;28;20033;-68
2022/08/20 09:00:22;;;;;;;4.72;1.23;;;20.50;97.40;;;;;;5044321;28;20154;-69
2022/08/20 09:02:56;;;;;;;4.38;0.80;;;20.60;96.90;;;;;;5046427;28;20045;-69
2022/08/20 09:05:30;;;;;;;4.88;0.98;;;20.60;93.90;;;;;;5052757;28;20099;-67
2022/08/20 09:07:57;;;;;;;5.55;1.15;;;20.50;95.10;;;;;;5044677;28;20109;-68
2022/08/20 09:10:23;;;;;;;4.32;0.95;;;20.30;94.50;;;;;;5045272;28;20029;-69
2022/08/20 09:12:49;;;;;;;5.97;1.27;;;20.00;95.00;;;;;;5045151;28;20055;-68
2022/08/20 09:15:15;;;;;;;4.75;1.17;;;19.90;96.00;;;;;;5042205;28;20682;-67
2022/08/20 09:17:41;;;;;;;4.75;1.08;;;19.90;96.20;;;;;;5045373;28;20032;-67
2022/08/20 09:20:09;;;;;;;5.30;1.00;;;20.10;96.30;;;;;;5046010;28;20122;-68
2022/08/20 09:22:35;;;;;;;5.78;1.27;;;20.20;95.90;;;;;;5045108;28;20029;-68
2022/08/20 09:25:02;;;;;;;7.00;1.25;;;20.30;96.00;;;;;;5045743;28;20075;-70
2022/08/20 09:27:28;;;;;;;5.45;1.30;;;20.40;95.70;;;;;;5047529;28;20032;-68
2022/08/20 09:29:54;;;;;;;6.43;1.20;;;20.50;95.00;;;;;;5045114;28;20047;-67
2022/08/20 09:32:22;;;;;;;6.07;1.17;;;20.70;95.60;;;;;;5043742;28;20032;-68
2022/08/20 09:34:55;;;;;;;5.60;1.17;;;20.70;94.10;;;;;;5046052;28;20056;-69
2022/08/20 09:37:22;;;;;;;5.65;1.15;;;20.70;94.00;;;;;;5044742;28;20426;-69
2022/08/20 09:39:49;;;;;;;7.20;1.13;;;20.50;94.40;;;;;;5045217;28;20041;-67
2022/08/20 09:42:26;;;;;;;8.02;1.17;;;20.40;94.10;;;;;;5039841;28;20535;-67
2022/08/20 09:44:53;;;;;;;6.80;1.50;;;20.20;93.90;;;;;;5049148;28;20036;-68
2022/08/20 09:47:19;;;;;;;5.13;1.10;;;20.00;95.20;;;;;;5050740;28;20041;-67
2022/08/20 09:49:45;;;;;;;7.57;1.25;;;19.90;95.70;;;;;;5045859;28;20033;-68
2022/08/20 09:52:24;;;;;;;5.75;1.13;;;19.80;95.70;;;;;;5044248;28;20460;-68
2022/08/20 09:54:53;;;;;;;6.00;1.15;;;19.80;96.40;;;;;;5048254;28;20186;-69
2022/08/20 09:57:20;;;;;;;5.45;1.20;;;20.10;96.80;;;;;;5043217;28;20029;-69
2022/08/20 09:59:53;;;;;;;4.10;1.13;;;20.30;95.80;;;;;;5047593;28;20082;-70
2022/08/20 10:02:19;;;;;;;8.02;1.27;;;20.30;94.80;;;;;;5044107;28;20060;-67
2022/08/20 10:04:45;;;;;;;4.78;1.15;;;20.20;94.70;;;;;;5045531;28;20029;-69
2022/08/20 10:07:11;;;;;;;6.55;1.55;;;20.10;95.80;;;;;;5045553;28;20060;-68
2022/08/20 10:09:37;;;;;;;4.90;1.20;;;20.10;96.40;;;;;;5050460;28;20116;-69
2022/08/20 10:12:04;;;;;;;6.97;1.10;;;20.20;97.10;;;;;;5050562;28;20037;-69
2022/08/20 10:14:30;;;;;;;5.65;1.40;;;20.30;97.50;;;;;;5050029;28;20572;-69
2022/08/20 10:17:00;;;;;;;5.60;1.20;;;20.50;97.40;;;;;;5049688;28;20024;-69
2022/08/20 10:19:26;;;;;;;3.85;1.05;;;20.60;96.50;;;;;;5049500;28;20029;-69
2022/08/20 10:21:53;;;;;;;5.57;1.17;;;20.70;97.10;;;;;;5050908;28;20041;-69
2022/08/20 10:24:19;;;;;;;6.28;1.38;;;20.60;96.50;;;;;;5051143;28;20025;-68
2022/08/20 10:26:46;;;;;;;5.45;0.95;;;20.60;96.50;;;;;;5059480;28;20415;-67
2022/08/20 10:29:12;;;;;;;6.43;1.30;;;20.70;97.10;;;;;;5051059;28;20044;-69
2022/08/20 10:31:38;;;;;;;5.97;1.33;;;20.80;97.30;;;;;;5045858;28;20022;-68
2022/08/20 10:34:03;;;;;;;7.82;1.50;;;20.80;97.20;;;;;;5030875;28;20036;-69
2022/08/20 10:36:29;;;;;;;7.03;1.30;;;20.90;97.10;;;;;;5030611;28;20048;-69
2022/08/20 10:38:55;;;;;;;5.85;1.15;;;21.00;97.50;;;;;;5030545;28;20033;-70
2022/08/20 10:41:21;;;;;;;5.88;1.23;;;21.20;97.70;;;;;;5028820;28;20034;-70
2022/08/20 10:43:47;;;;;;;5.20;1.00;;;21.30;97.20;;;;;;5045254;28;20033;-69
2022/08/20 10:46:13;;;;;;;5.30;1.00;;;21.60;95.70;;;;;;5049247;28;20086;-69
2022/08/20 10:48:39;;;;;;;6.65;1.17;;;21.90;95.30;;;;;;5050580;28;20094;-69
2022/08/20 10:51:05;;;;;;;4.78;1.00;;;22.10;95.20;;;;;;5050383;28;20124;-70
2022/08/20 10:53:31;;;;;;;5.43;1.08;;;22.10;94.60;;;;;;5048825;28;20029;-67
2022/08/20 10:55:57;;;;;;;6.40;1.10;;;21.90;94.60;;;;;;5037465;28;20038;-68
2022/08/20 10:58:24;;;;;;;7.68;1.20;;;21.70;94.50;;;;;;5045825;28;20073;-69
2022/08/20 11:00:50;;;;;;;5.00;1.23;;;21.60;94.40;;;;;;5045425;28;20424;-69
2022/08/20 11:03:16;;;;;;;7.68;1.08;;;21.50;94.80;;;;;;5029990;28;20029;-70
2022/08/20 11:05:42;;;;;;;7.90;1.42;;;21.40;94.80;;;;;;5028917;28;20373;-69
2022/08/20 11:08:08;;;;;;;4.47;1.05;;;21.30;95.10;;;;;;5030339;28;20396;-70
2022/08/20 11:10:35;;;;;;;5.57;1.17;;;21.20;95.30;;;;;;5029492;28;20466;-69
2022/08/20 11:13:03;;;;;;;8.65;1.35;;;21.20;95.50;;;;;;5030183;28;20835;-70
2022/08/20 11:15:29;;;;;;;6.15;1.20;;;21.20;96.40;;;;;;5030359;28;20410;-68
2022/08/20 11:17:55;;;;;;;7.00;1.63;;;21.10;96.70;;;;;;5030072;28;20120;-67
2022/08/20 11:20:25;;;;;;;6.45;1.38;;;21.00;97.70;;;;;;5048293;28;20043;-67
2022/08/20 11:22:51;;;;;;;8.77;1.58;;;21.00;97.50;;;;;;5049507;28;20036;-69
2022/08/20 11:25:17;;;;;;;10.15;1.73;;;21.00;99.00;;;;;;5049818;28;20091;-69
2022/08/20 11:27:46;;;;;;;8.77;1.52;;;21.00;99.90;;;;;;5049930;28;20410;-72
2022/08/20 11:30:16;;;;;;;10.30;1.60;;;21.20;99.30;;;;;;5050026;28;20071;-69
2022/08/20 11:32:42;;;;;;;6.45;1.33;;;21.40;99.00;;;;;;5049674;28;20033;-69
2022/08/20 11:35:09;;;;;;;9.20;1.70;;;21.30;98.40;;;;;;5049735;28;20033;-70
2022/08/20 11:37:35;;;;;;;6.60;1.33;;;21.10;98.40;;;;;;5049701;28;20115;-69
2022/08/20 11:40:01;;;;;;;9.02;1.42;;;21.00;99.70;;;;;;5050017;28;20104;-69
2022/08/20 11:42:26;;;;;;;9.43;1.42;;;21.00;99.20;;;;;;5048310;28;20494;-67
2022/08/20 11:44:52;;;;;;;10.50;2.20;;;20.90;99.50;;;;;;5049575;28;20395;-69
2022/08/20 11:47:23;;;;;;;9.15;1.63;;;20.90;99.70;;;;;;5049773;28;20471;-69
2022/08/20 11:49:59;;;;;;;8.57;1.40;;;20.90;99.90;;;;;;5049404;28;20027;-69
2022/08/20 11:52:26;;;;;;;11.38;1.60;;;21.00;99.70;;;;;;5048991;28;20042;-70
2022/08/20 11:54:52;;;;;;;8.70;1.70;;;20.90;99.80;;;;;;5049293;28;20020;-72
2022/08/20 11:57:22;;;;;;;18.08;1.98;;;21.00;99.30;;;;;;5049377;28;20052;-66
2022/08/20 11:59:53;;;;;;;9.60;1.70;;;21.10;99.90;;;;;;5047852;28;20025;-68
2022/08/20 12:02:19;;;;;;;8.23;1.50;;;21.20;99.50;;;;;;5048982;28;20076;-70
2022/08/20 12:04:44;;;;;;;6.97;1.55;;;21.50;99.60;;;;;;5039493;28;20022;-70
2022/08/20 12:07:12;;;;;;;13.80;1.40;;;22.00;99.00;;;;;;5029214;28;20380;-70
2022/08/20 12:09:39;;;;;;;9.23;1.33;;;22.30;98.80;;;;;;5029352;28;20028;-70
2022/08/20 12:12:05;;;;;;;6.50;1.42;;;22.60;97.60;;;;;;5029091;28;20030;-68
2022/08/20 12:14:31;;;;;;;9.07;1.52;;;22.70;98.10;;;;;;5027791;28;20693;-67
2022/08/20 12:16:56;;;;;;;7.50;1.55;;;23.00;97.40;;;;;;5029030;28;20045;-69
2022/08/20 12:19:22;;;;;;;8.73;1.90;;;23.10;97.70;;;;;;5028976;28;20057;-72
2022/08/20 12:21:48;;;;;;;7.25;1.52;;;23.10;97.30;;;;;;5026642;28;20048;-70
2022/08/20 12:24:13;;;;;;;7.20;1.30;;;23.40;96.20;;;;;;5028969;28;20037;-69
2022/08/20 12:26:39;;;;;;;9.55;1.60;;;23.60;95.40;;;;;;5027440;28;20255;-69
2022/08/20 12:29:05;;;;;;;7.82;1.25;;;23.80;94.70;;;;;;5040615;28;20033;-69
2022/08/20 12:31:31;;;;;;;10.00;1.50;;;23.80;95.10;;;;;;5029557;28;20041;-68
2022/08/20 12:33:57;;;;;;;8.25;1.13;;;23.90;93.70;;;;;;5028197;28;20029;-69
2022/08/20 12:36:22;;;;;;;11.15;2.13;;;24.00;93.00;;;;;;5028516;28;20330;-69
2022/08/20 12:38:48;;;;;;;7.90;1.55;;;24.20;93.50;;;;;;5034919;28;20391;-70
2022/08/20 12:41:14;;;;;;;10.30;1.60;;;24.10;93.50;;;;;;5047895;28;20060;-69
2022/08/20 12:43:39;;;;;;;9.70;1.40;;;24.00;93.00;;;;;;5046637;28;20860;-69
2022/08/20 12:46:05;;;;;;;7.72;1.70;;;23.90;92.80;;;;;;5043467;28;20535;-71
2022/08/20 12:48:31;;;;;;;9.02;1.45;;;23.80;94.00;;;;;;5043759;28;20476;-70
2022/08/20 12:50:56;;;;;;;9.30;1.70;;;23.90;94.90;;;;;;5028161;28;20815;-70
2022/08/20 12:53:22;;;;;;;9.13;1.50;;;23.90;93.70;;;;;;5028429;28;20110;-70
2022/08/20 12:55:48;;;;;;;6.32;1.20;;;23.90;92.90;;;;;;5028420;28;20025;-70
2022/08/20 12:58:13;;;;;;;6.78;1.20;;;23.80;92.30;;;;;;5028235;28;20171;-69
2022/08/20 13:00:43;;;;;;;9.00;1.52;;;23.70;92.70;;;;;;5047111;28;20055;-73